createdAt,value
2023-01-09T00:00:34.783Z,6.47
2023-01-09T00:03:01.867Z,7.28
2023-01-09T00:05:28.937Z,9.25
2023-01-09T00:07:55.853Z,6.55
2023-01-09T00:10:25.761Z,7.28
2023-01-09T00:12:52.842Z,6.10
2023-01-09T00:15:20.048Z,7.78
2023-01-09T00:17:46.967Z,6.93
2023-01-09T00:20:13.864Z,5.93
2023-01-09T00:22:40.793Z,6.85
2023-01-09T00:25:07.875Z,6.53
2023-01-09T00:27:34.787Z,5.22
2023-01-09T00:30:01.752Z,8.27
2023-01-09T00:32:28.666Z,7.22
2023-01-09T00:34:55.579Z,7.10
2023-01-09T00:37:22.511Z,6.93
2023-01-09T00:39:49.422Z,5.80
2023-01-09T00:42:16.332Z,6.38
2023-01-09T00:44:43.292Z,6.15
2023-01-09T00:47:10.202Z,6.53
2023-01-09T00:49:37.101Z,5.82
2023-01-09T00:52:03.997Z,6.60
2023-01-09T00:54:30.914Z,6.88
2023-01-09T00:56:57.850Z,6.15
2023-01-09T00:59:24.770Z,6.68
2023-01-09T01:01:51.799Z,6.90
2023-01-09T01:04:18.851Z,6.10
2023-01-09T01:06:45.766Z,6.35
2023-01-09T01:09:12.658Z,6.53
2023-01-09T01:11:39.570Z,5.90
2023-01-09T01:14:06.524Z,7.53
2023-01-09T01:16:33.454Z,5.75
2023-01-09T01:19:00.356Z,8.10
2023-01-09T01:21:27.269Z,8.48
2023-01-09T01:23:54.170Z,8.10
2023-01-09T01:26:21.077Z,8.32
2023-01-09T01:28:47.991Z,7.07
2023-01-09T01:31:14.929Z,6.50
2023-01-09T01:33:41.828Z,6.10
2023-01-09T01:36:08.757Z,9.52
2023-01-09T01:38:35.683Z,8.00
2023-01-09T01:41:02.611Z,7.63
2023-01-09T01:43:29.581Z,9.68
2023-01-09T01:45:56.684Z,7.90
2023-01-09T01:48:23.639Z,7.50
2023-01-09T01:50:50.581Z,8.10
2023-01-09T01:53:17.496Z,7.38
2023-01-09T01:55:44.427Z,8.02
2023-01-09T01:58:11.421Z,6.70
2023-01-09T02:00:38.363Z,9.68
2023-01-09T02:03:05.373Z,8.00
2023-01-09T02:05:32.377Z,7.70
2023-01-09T02:07:59.298Z,8.57
2023-01-09T02:10:26.224Z,8.65
2023-01-09T02:12:53.187Z,7.55
2023-01-09T02:15:20.151Z,8.65
2023-01-09T02:17:47.064Z,8.45
2023-01-09T02:20:14.044Z,8.40
2023-01-09T02:22:40.947Z,9.30
2023-01-09T02:25:07.862Z,7.22
2023-01-09T02:27:34.776Z,8.48
2023-01-09T02:30:01.710Z,8.77
2023-01-09T02:32:28.628Z,9.15
2023-01-09T02:34:55.615Z,7.22
2023-01-09T02:37:22.576Z,8.95
2023-01-09T02:39:49.483Z,9.05
2023-01-09T02:42:16.440Z,8.60
2023-01-09T02:44:43.371Z,9.10
2023-01-09T02:47:10.293Z,8.00
2023-01-09T02:49:37.199Z,7.75
2023-01-09T02:52:04.131Z,9.57
2023-01-09T02:54:31.039Z,11.80
2023-01-09T02:56:57.997Z,9.73
2023-01-09T02:59:24.935Z,10.10
2023-01-09T03:01:51.957Z,8.88
2023-01-09T03:04:19.017Z,8.57
2023-01-09T03:06:45.952Z,7.63
2023-01-09T03:09:12.891Z,7.43
2023-01-09T03:11:39.846Z,9.38
2023-01-09T03:14:06.774Z,9.82
2023-01-09T03:16:33.829Z,8.35
2023-01-09T03:19:00.766Z,7.72
2023-01-09T03:21:27.732Z,8.30
2023-01-09T03:23:54.647Z,7.47
2023-01-09T03:26:21.574Z,8.65
2023-01-09T03:28:48.507Z,10.05
2023-01-09T03:31:15.477Z,9.30
2023-01-09T03:33:42.441Z,9.50
2023-01-09T03:36:09.405Z,8.15
2023-01-09T03:38:36.369Z,8.38
2023-01-09T03:41:03.332Z,8.70
2023-01-09T03:43:30.285Z,8.43
2023-01-09T03:45:57.252Z,8.70
2023-01-09T03:48:24.235Z,7.88
2023-01-09T03:50:51.182Z,7.20
2023-01-09T03:53:18.106Z,7.03
2023-01-09T03:55:45.034Z,8.05
2023-01-09T03:58:11.932Z,6.85
2023-01-09T04:00:38.870Z,6.75
2023-01-09T04:03:05.884Z,7.72
2023-01-09T04:05:32.826Z,6.45
2023-01-09T04:07:59.769Z,8.10
2023-01-09T04:10:26.695Z,7.68
2023-01-09T04:12:53.634Z,7.80
2023-01-09T04:15:20.548Z,7.85
2023-01-09T04:17:47.480Z,8.50
2023-01-09T04:20:14.405Z,8.05
2023-01-09T04:22:41.338Z,7.30
2023-01-09T04:25:08.268Z,8.05
2023-01-09T04:27:35.172Z,7.90
2023-01-09T04:30:02.128Z,7.68
2023-01-09T04:32:29.045Z,7.63
2023-01-09T04:34:55.974Z,7.10
2023-01-09T04:37:22.933Z,6.65
2023-01-09T04:39:49.839Z,5.68
2023-01-09T04:42:16.775Z,7.72
2023-01-09T04:44:43.701Z,7.03
2023-01-09T04:47:10.621Z,7.28
2023-01-09T04:49:37.579Z,7.40
2023-01-09T04:52:04.521Z,7.55
2023-01-09T04:54:31.488Z,6.47
2023-01-09T04:56:58.419Z,10.38
2023-01-09T04:59:25.372Z,7.47
2023-01-09T05:01:52.430Z,7.40
2023-01-09T05:04:19.512Z,9.45
2023-01-09T05:06:46.513Z,8.27
2023-01-09T05:09:13.413Z,7.70
2023-01-09T05:11:40.370Z,7.07
2023-01-09T05:14:07.315Z,7.20
2023-01-09T05:16:34.327Z,6.90
2023-01-09T05:19:01.262Z,6.63
2023-01-09T05:21:28.191Z,7.63
2023-01-09T05:23:55.140Z,7.28
2023-01-09T05:26:22.134Z,6.75
2023-01-09T05:28:49.082Z,7.53
2023-01-09T05:31:16.076Z,7.75
2023-01-09T05:33:43.049Z,6.97
2023-01-09T05:36:09.989Z,6.63
2023-01-09T05:38:36.922Z,8.45
2023-01-09T05:41:03.847Z,6.75
2023-01-09T05:43:30.736Z,6.72
2023-01-09T05:45:57.705Z,5.13
2023-01-09T05:48:24.616Z,4.78
2023-01-09T05:50:51.557Z,6.20
2023-01-09T05:53:18.967Z,4.25
2023-01-09T05:55:45.929Z,6.65
2023-01-09T05:58:12.861Z,6.40
2023-01-09T06:00:39.787Z,5.70
2023-01-09T06:03:18.232Z,6.30
2023-01-09T06:05:45.163Z,5.13
2023-01-09T06:08:12.126Z,5.40
2023-01-09T06:10:39.078Z,5.43
2023-01-09T06:13:05.996Z,5.50
2023-01-09T06:15:34.224Z,4.68
2023-01-09T06:18:01.167Z,5.10
2023-01-09T06:20:28.079Z,5.43
2023-01-09T06:22:55.023Z,2.45
2023-01-09T06:25:21.951Z,4.07
2023-01-09T06:27:48.924Z,5.28
2023-01-09T06:30:15.824Z,6.22
2023-01-09T06:32:42.805Z,5.65
2023-01-09T06:35:09.770Z,5.63
2023-01-09T06:37:36.712Z,4.38
2023-01-09T06:40:03.671Z,4.82
2023-01-09T06:42:30.663Z,3.00
2023-01-09T06:44:57.565Z,5.18
2023-01-09T06:47:24.506Z,5.28
2023-01-09T06:49:51.571Z,4.38
2023-01-09T06:52:18.509Z,4.57
2023-01-09T06:54:45.429Z,3.20
2023-01-09T06:57:12.355Z,3.55
2023-01-09T06:59:39.288Z,4.68
2023-01-09T07:02:06.305Z,3.05
2023-01-09T07:04:33.295Z,4.95
2023-01-09T07:07:00.263Z,4.82
2023-01-09T07:09:27.218Z,4.30
2023-01-09T07:11:54.138Z,4.38
2023-01-09T07:14:21.073Z,4.53
2023-01-09T07:16:48.014Z,2.38
2023-01-09T07:19:14.939Z,6.47
2023-01-09T07:21:41.903Z,3.83
2023-01-09T07:24:08.841Z,4.90
2023-01-09T07:26:35.787Z,4.28
2023-01-09T07:29:02.715Z,4.32
2023-01-09T07:31:29.664Z,5.50
2023-01-09T07:33:56.748Z,6.85
2023-01-09T07:36:23.658Z,3.15
2023-01-09T07:38:50.599Z,5.43
2023-01-09T07:41:17.497Z,5.43
2023-01-09T07:43:44.480Z,4.75
2023-01-09T07:46:11.420Z,3.92
2023-01-09T07:48:38.370Z,3.90
2023-01-09T07:54:01.713Z,2.80
2023-01-09T08:07:39.063Z,2.53
2023-01-09T08:10:06.005Z,3.40
2023-01-09T08:15:23.945Z,3.28
2023-01-09T08:17:50.949Z,2.97
2023-01-09T08:23:13.888Z,2.35
2023-01-09T08:28:41.063Z,3.17
2023-01-09T08:31:17.847Z,4.13
2023-01-09T08:36:28.644Z,5.70
2023-01-09T08:41:54.294Z,3.67
2023-01-09T08:44:21.308Z,5.07
2023-01-09T08:52:24.529Z,6.78
2023-01-09T08:57:36.092Z,5.57
2023-01-09T09:00:03.097Z,7.57
2023-01-09T09:02:30.087Z,5.97
2023-01-09T09:04:57.031Z,5.72
2023-01-09T09:07:23.949Z,3.25
2023-01-09T09:09:50.914Z,4.47
2023-01-09T09:12:17.862Z,4.78
2023-01-09T09:14:44.789Z,5.18
2023-01-09T09:17:11.724Z,5.88
2023-01-09T09:19:38.674Z,6.30
2023-01-09T09:22:05.588Z,6.28
2023-01-09T09:24:32.553Z,6.35
2023-01-09T09:26:59.480Z,5.55
2023-01-09T09:29:26.434Z,5.75
2023-01-09T09:31:53.374Z,6.95
2023-01-09T09:34:20.318Z,6.03
2023-01-09T09:36:47.281Z,8.48
2023-01-09T09:39:14.187Z,7.88
2023-01-09T09:41:41.139Z,9.23
2023-01-09T09:44:08.080Z,8.60
2023-01-09T09:46:35.033Z,8.23
2023-01-09T09:49:02.006Z,7.80
2023-01-09T09:51:28.933Z,9.00
2023-01-09T09:53:55.863Z,9.13
2023-01-09T09:56:22.816Z,11.13
2023-01-09T09:58:50.122Z,11.55
2023-01-09T10:01:17.093Z,8.63
2023-01-09T10:03:44.072Z,10.40
2023-01-09T10:06:11.032Z,10.27
2023-01-09T10:08:38.012Z,10.70
2023-01-09T10:11:04.958Z,8.43
2023-01-09T10:13:32.629Z,10.60
2023-01-09T10:15:59.671Z,9.07
2023-01-09T10:18:26.836Z,12.27
2023-01-09T10:20:53.747Z,10.85
2023-01-09T10:23:20.684Z,11.98
2023-01-09T10:25:47.629Z,12.02
2023-01-09T10:28:14.591Z,11.25
2023-01-09T10:30:41.515Z,11.93
2023-01-09T10:33:08.489Z,9.90
2023-01-09T10:35:46.976Z,10.18
2023-01-09T10:38:14.777Z,9.88
2023-01-09T10:40:41.729Z,10.35
2023-01-09T10:43:08.667Z,9.27
2023-01-09T10:45:35.609Z,10.68
2023-01-09T10:48:02.588Z,11.32
2023-01-09T10:50:29.516Z,13.65
2023-01-09T10:52:56.462Z,12.13
2023-01-09T10:55:23.381Z,14.25
2023-01-09T10:57:53.370Z,17.27
2023-01-09T11:00:23.071Z,13.65
2023-01-09T11:02:50.400Z,15.23
2023-01-09T11:05:17.335Z,13.52
2023-01-09T11:07:44.271Z,13.55
2023-01-09T11:10:11.199Z,13.10
2023-01-09T11:23:21.037Z,10.43
2023-01-09T11:25:48.030Z,15.85
2023-01-09T11:28:15.125Z,12.30
2023-01-09T11:30:42.085Z,12.55
2023-01-09T11:33:09.055Z,14.65
2023-01-09T11:35:36.021Z,11.63
2023-01-09T11:38:02.989Z,13.68
2023-01-09T11:40:29.994Z,11.07
2023-01-09T11:42:56.960Z,13.23
2023-01-09T11:45:23.924Z,12.38
2023-01-09T11:47:50.940Z,14.18
2023-01-09T11:50:18.029Z,11.13
2023-01-09T11:52:46.331Z,14.93
2023-01-09T11:55:13.376Z,16.13
2023-01-09T11:57:40.316Z,15.80
2023-01-09T12:00:07.255Z,18.88
2023-01-09T12:02:34.185Z,14.20
2023-01-09T12:05:01.224Z,15.98
2023-01-09T12:07:28.160Z,15.88
2023-01-09T12:09:55.083Z,13.35
2023-01-09T12:12:22.041Z,13.95
2023-01-09T12:14:51.899Z,13.20
2023-01-09T12:17:18.857Z,13.57
2023-01-09T12:19:45.769Z,14.27
2023-01-09T12:22:12.689Z,11.20
2023-01-09T12:24:39.616Z,12.88
2023-01-09T12:27:06.747Z,12.48
2023-01-09T12:29:33.670Z,12.40
2023-01-09T12:32:00.651Z,13.15
2023-01-09T12:34:27.707Z,13.50
2023-01-09T12:36:54.668Z,12.32
2023-01-09T12:39:21.626Z,9.80
2023-01-09T12:41:48.553Z,12.98
2023-01-09T12:44:19.808Z,11.32
2023-01-09T12:46:51.282Z,12.85
2023-01-09T12:49:18.200Z,10.65
2023-01-09T12:51:45.143Z,10.93
2023-01-09T12:54:12.074Z,11.38
2023-01-09T12:56:39.050Z,11.88
2023-01-09T12:59:05.998Z,14.18
2023-01-09T13:01:32.943Z,13.18
2023-01-09T13:03:59.943Z,12.77
2023-01-09T13:06:26.852Z,11.60
2023-01-09T13:08:53.937Z,9.85
2023-01-09T13:11:30.563Z,9.65
2023-01-09T13:13:57.622Z,11.15
2023-01-09T13:19:07.472Z,10.30
2023-01-09T13:21:34.385Z,10.60
2023-01-09T13:24:01.434Z,10.27
2023-01-09T13:26:28.383Z,14.18
2023-01-09T13:28:55.345Z,11.45
2023-01-09T13:31:22.370Z,13.23
2023-01-09T13:33:49.361Z,12.15
2023-01-09T13:36:17.995Z,9.73
2023-01-09T13:38:45.999Z,12.07
2023-01-09T13:41:12.924Z,12.07
2023-01-09T13:43:39.973Z,16.15
2023-01-09T13:46:06.967Z,14.45
2023-01-09T13:48:33.980Z,10.93
2023-01-09T13:51:00.955Z,12.80
2023-01-09T13:53:27.879Z,10.43
2023-01-09T13:55:54.815Z,15.40
2023-01-09T13:58:23.923Z,13.23
2023-01-09T14:00:50.924Z,10.95
2023-01-09T14:03:18.055Z,10.57
2023-01-09T14:05:44.994Z,12.85
2023-01-09T14:08:11.950Z,11.82
2023-01-09T14:10:38.880Z,12.57
2023-01-09T14:13:05.837Z,11.25
2023-01-09T14:15:32.754Z,13.77
2023-01-09T14:17:59.714Z,13.95
2023-01-09T14:20:26.657Z,14.98
2023-01-09T14:22:56.486Z,11.93
2023-01-09T14:25:32.239Z,11.88
2023-01-09T14:27:59.189Z,11.48
2023-01-09T14:30:26.155Z,13.13
2023-01-09T14:32:53.110Z,10.40
2023-01-09T14:35:20.406Z,11.23
2023-01-09T14:37:47.332Z,11.75
2023-01-09T14:40:14.310Z,13.90
2023-01-09T14:42:41.245Z,13.05
2023-01-09T14:45:08.179Z,14.68
2023-01-09T14:47:35.104Z,13.00
2023-01-09T14:50:02.115Z,13.35
2023-01-09T14:52:29.043Z,13.13
2023-01-09T14:54:56.008Z,13.50
2023-01-09T14:57:22.963Z,11.35
2023-01-09T14:59:49.927Z,14.10
2023-01-09T15:02:16.864Z,12.93
2023-01-09T15:04:43.807Z,10.43
2023-01-09T15:07:10.781Z,10.48
2023-01-09T15:09:37.729Z,11.32
2023-01-09T15:12:04.692Z,13.18
2023-01-09T15:14:31.618Z,11.70
2023-01-09T15:16:58.589Z,11.43
2023-01-09T15:19:25.562Z,13.60
2023-01-09T15:21:52.505Z,14.10
2023-01-09T15:24:19.432Z,12.40
2023-01-09T15:26:46.338Z,14.95
2023-01-09T15:29:13.285Z,12.68
2023-01-09T15:31:40.224Z,14.05
2023-01-09T15:34:07.171Z,12.10
2023-01-09T15:36:35.223Z,11.18
2023-01-09T15:39:02.292Z,13.32
2023-01-09T15:41:29.216Z,13.90
2023-01-09T15:43:56.367Z,10.23
2023-01-09T15:46:23.370Z,13.90
2023-01-09T15:48:50.304Z,11.98
2023-01-09T15:51:17.260Z,13.05
2023-01-09T15:53:44.200Z,13.85
2023-01-09T15:56:11.180Z,11.40
2023-01-09T15:58:38.139Z,11.68
2023-01-09T16:01:05.129Z,13.80
2023-01-09T16:03:32.088Z,15.30
2023-01-09T16:05:59.012Z,14.73
2023-01-09T16:08:25.934Z,13.90
2023-01-09T16:10:52.934Z,13.10
2023-01-09T16:13:19.860Z,14.57
2023-01-09T16:15:46.895Z,14.15
2023-01-09T16:18:13.846Z,16.60
2023-01-09T16:20:40.849Z,16.52
2023-01-09T16:23:07.818Z,18.52
2023-01-09T16:25:34.762Z,17.08
2023-01-09T16:28:01.685Z,15.60
2023-01-09T16:30:28.612Z,19.60
2023-01-09T16:32:55.556Z,14.43
2023-01-09T16:35:22.479Z,13.40
2023-01-09T16:37:49.498Z,14.13
2023-01-09T16:40:16.458Z,15.20
2023-01-09T16:42:43.357Z,12.77
2023-01-09T16:45:10.310Z,13.00
2023-01-09T16:47:37.261Z,14.45
2023-01-09T16:50:04.317Z,15.40
2023-01-09T16:52:31.312Z,12.73
2023-01-09T16:54:58.314Z,13.00
2023-01-09T16:57:25.316Z,13.25
2023-01-09T16:59:52.355Z,16.50
2023-01-09T17:02:19.408Z,11.02
2023-01-09T17:04:46.484Z,12.95
2023-01-09T17:07:13.455Z,10.68
2023-01-09T17:09:40.391Z,12.05
2023-01-09T17:12:07.346Z,13.05
2023-01-09T17:14:34.286Z,15.23
2023-01-09T17:17:03.507Z,11.35
2023-01-09T17:19:30.520Z,14.77
2023-01-09T17:21:57.432Z,13.35
2023-01-09T17:24:24.437Z,13.68
2023-01-09T17:26:51.471Z,13.50
2023-01-09T17:29:18.438Z,14.85
2023-01-09T17:31:45.483Z,14.68
2023-01-09T17:34:12.519Z,13.13
2023-01-09T17:36:39.503Z,13.52
2023-01-09T17:39:06.689Z,12.40
2023-01-09T17:41:33.720Z,13.02
2023-01-09T17:44:00.660Z,14.52
2023-01-09T17:46:32.041Z,13.43
2023-01-09T17:48:59.040Z,15.57
2023-01-09T17:51:36.076Z,18.77
2023-01-09T17:54:03.093Z,16.67
2023-01-09T17:56:30.055Z,14.95
2023-01-09T17:58:57.016Z,14.20
2023-01-09T18:01:24.001Z,20.52
2023-01-09T18:03:50.992Z,20.55
2023-01-09T18:06:17.893Z,19.45
2023-01-09T18:08:46.245Z,20.83
2023-01-09T18:11:13.154Z,18.75
2023-01-09T18:13:40.100Z,18.88
2023-01-09T18:16:07.181Z,16.92
2023-01-09T18:18:34.159Z,18.42
2023-01-09T18:21:01.094Z,19.73
2023-01-09T18:23:27.989Z,17.30
2023-01-09T18:26:07.929Z,14.65
2023-01-09T18:28:34.840Z,17.65
2023-01-09T18:31:01.775Z,15.98
2023-01-09T18:33:28.662Z,13.98
2023-01-09T18:35:55.555Z,15.00
2023-01-09T18:38:22.463Z,15.27
2023-01-09T18:46:05.605Z,19.88
2023-01-09T18:51:17.022Z,22.67
2023-01-09T18:53:43.923Z,19.63
2023-01-09T18:56:10.850Z,20.63
2023-01-09T18:58:37.819Z,18.10
2023-01-09T19:01:04.818Z,18.05
2023-01-09T19:03:31.867Z,20.35
2023-01-09T19:05:58.855Z,18.35
2023-01-09T19:08:25.784Z,18.90
2023-01-09T19:10:52.783Z,21.52
2023-01-09T19:13:19.720Z,17.52
2023-01-09T19:15:48.741Z,18.60
2023-01-09T19:18:15.663Z,18.83
2023-01-09T19:20:42.624Z,18.00
2023-01-09T19:23:09.553Z,19.13
2023-01-09T19:25:36.613Z,18.17
2023-01-09T19:28:03.529Z,20.75
2023-01-09T19:30:30.446Z,23.20
2023-01-09T19:32:57.347Z,19.92
2023-01-09T19:35:24.285Z,20.67
2023-01-09T19:37:51.279Z,18.92
2023-01-09T19:40:18.187Z,22.23
2023-01-09T19:42:45.142Z,19.33
2023-01-09T19:45:12.059Z,17.83
2023-01-09T19:47:38.992Z,18.00
2023-01-09T19:50:06.167Z,16.17
2023-01-09T21:17:42.964Z,25.52
2023-01-09T21:20:34.251Z,23.08
2023-01-09T21:25:43.021Z,22.88
2023-01-09T21:33:42.203Z,22.48
2023-01-09T21:36:09.218Z,22.73
2023-01-09T22:01:59.699Z,24.42
2023-01-09T22:21:22.669Z,32.47
2023-01-09T22:46:31.640Z,28.05
2023-01-09T22:59:12.064Z,24.73
2023-01-09T23:00:05.982Z,27.38
2023-01-09T23:10:50.033Z,24.48
2023-01-09T23:13:16.943Z,27.27
2023-01-09T23:15:43.857Z,28.35
2023-01-09T23:18:10.780Z,23.23
2023-01-09T23:20:37.707Z,26.67
2023-01-09T23:23:04.622Z,23.88
2023-01-09T23:25:31.575Z,25.65
2023-01-09T23:28:01.534Z,25.10
2023-01-09T23:30:28.589Z,25.35
2023-01-09T23:32:55.548Z,26.08
2023-01-09T23:35:22.494Z,27.75
2023-01-09T23:37:49.437Z,25.90
2023-01-09T23:40:16.335Z,25.23
2023-01-09T23:42:43.248Z,27.58
2023-01-09T23:45:10.169Z,27.95
2023-01-09T23:47:37.239Z,24.52
2023-01-09T23:50:04.163Z,27.15
2023-01-09T23:52:31.069Z,28.58
2023-01-09T23:54:57.981Z,24.45
2023-01-09T23:57:25.053Z,26.83
2023-01-09T23:59:54.351Z,23.95
